Time;durP1;ratioP1;P1;durP2;ratioP2;P2;SDS_P1;SDS_P2;PMS_P1;PMS_P2;Temp;Humidity;BMP_temperature;BMP_pressure;BME280_temperature;BME280_humidity;BME280_pressure;Samples;Min_cycle;Max_cycle;Signal;HPM_P1;HPM_P2
2022/01/01 00:00:44;;;;;;;151.32;93.28;;;;;;;9.88;100.00;102007.84;4736148;30;20048;-79
2022/01/01 00:03:13;;;;;;;142.60;94.63;;;;;;;9.89;100.00;102009.63;4740203;30;20063;-78
2022/01/01 00:05:42;;;;;;;136.00;88.05;;;;;;;9.88;100.00;102013.09;4721192;30;20055;-78
2022/01/01 00:08:12;;;;;;;129.13;83.20;;;;;;;9.87;100.00;102009.59;4750632;30;20066;-79
2022/01/01 00:10:40;;;;;;;133.30;85.10;;;;;;;9.87;100.00;102024.50;4747887;30;20418;-78
2022/01/01 00:13:16;;;;;;;134.52;82.47;;;;;;;9.84;100.00;102024.41;4726062;30;20641;-78
2022/01/01 00:15:44;;;;;;;139.30;84.38;;;;;;;9.84;100.00;102005.97;4703323;30;20044;-78
2022/01/01 00:18:13;;;;;;;138.27;88.47;;;;;;;9.84;100.00;102008.63;4713397;30;20051;-78
2022/01/01 00:20:41;;;;;;;102.93;65.32;;;;;;;9.84;100.00;102013.88;4718457;30;20048;-80
2022/01/01 00:23:10;;;;;;;102.13;56.97;;;;;;;9.84;100.00;102013.88;4731101;30;20048;-78
2022/01/01 00:25:38;;;;;;;91.78;50.65;;;;;;;9.83;100.00;102025.25;4723293;30;20970;-78
2022/01/01 00:28:12;;;;;;;80.97;49.90;;;;;;;9.81;100.00;102016.44;4746603;30;20514;-78
2022/01/01 00:30:40;;;;;;;91.32;51.08;;;;;;;9.81;100.00;102019.06;4724734;30;20052;-78
2022/01/01 00:33:09;;;;;;;96.85;51.20;;;;;;;9.79;100.00;102012.88;4735052;30;20040;-78
2022/01/01 00:35:39;;;;;;;97.18;53.65;;;;;;;9.74;100.00;102020.66;4779226;30;20208;-77
2022/01/01 00:38:08;;;;;;;100.18;54.85;;;;;;;9.72;100.00;102017.97;4755207;30;20063;-78
2022/01/01 00:40:36;;;;;;;115.22;57.35;;;;;;;9.71;100.00;102028.47;4751156;30;20052;-78
2022/01/01 00:43:05;;;;;;;96.47;54.60;;;;;;;9.69;100.00;102019.66;4742704;30;20068;-78
2022/01/01 00:45:33;;;;;;;107.63;56.85;;;;;;;9.68;100.00;102031.94;4714298;30;20067;-78
2022/01/01 00:48:02;;;;;;;116.47;60.63;;;;;;;9.67;100.00;102039.78;4747550;30;20067;-78
2022/01/01 00:50:30;;;;;;;106.32;57.10;;;;;;;9.67;100.00;102031.88;4727410;30;20064;-78
2022/01/01 00:53:02;;;;;;;117.38;60.10;;;;;;;9.66;100.00;102038.91;4730605;30;20051;-84
2022/01/01 00:55:30;;;;;;;95.15;48.85;;;;;;;9.65;100.00;102046.75;4737072;30;20602;-79
2022/01/01 00:57:59;;;;;;;93.78;48.42;;;;;;;9.66;100.00;102044.16;4730370;30;20051;-78
2022/01/01 01:00:29;;;;;;;95.90;49.70;;;;;;;9.67;100.00;102055.56;4707743;30;20079;-78
2022/01/01 01:02:57;;;;;;;93.80;47.53;;;;;;;9.68;100.00;102060.88;4748756;30;20047;-78
2022/01/01 01:05:26;;;;;;;96.97;46.88;;;;;;;9.67;100.00;102058.19;4728584;30;20047;-78
2022/01/01 01:07:54;;;;;;;85.40;41.38;;;;;;;9.67;100.00;102059.09;4735322;30;20040;-78
2022/01/01 01:10:23;;;;;;;92.15;42.78;;;;;;;9.68;100.00;102058.25;4745718;30;20052;-78
2022/01/01 01:12:53;;;;;;;88.13;41.55;;;;;;;9.70;100.00;102077.59;4745877;30;20048;-79
2022/01/01 01:15:21;;;;;;;78.45;40.08;;;;;;;9.71;100.00;102058.31;4704971;30;20055;-79
2022/01/01 01:17:52;;;;;;;77.82;37.42;;;;;;;9.70;100.00;102050.41;4732580;30;20051;-78
2022/01/01 01:20:21;;;;;;;68.40;34.90;;;;;;;9.71;100.00;102050.41;4742506;30;20040;-78
2022/01/01 01:22:49;;;;;;;69.15;33.28;;;;;;;9.71;100.00;102058.31;4760850;30;20511;-78
2022/01/01 01:25:20;;;;;;;66.30;31.35;;;;;;;9.71;100.00;102053.03;4724414;30;20048;-79
2022/01/01 01:27:50;;;;;;;67.00;30.85;;;;;;;9.67;100.00;102059.09;4742386;30;20392;-78
2022/01/01 01:30:19;;;;;;;63.40;28.30;;;;;;;9.65;100.00;102052.88;4738886;30;20499;-78
2022/01/01 01:32:47;;;;;;;66.45;27.25;;;;;;;9.62;100.00;102047.56;4712673;30;20063;-78
2022/01/01 01:35:15;;;;;;;68.78;26.77;;;;;;;9.56;100.00;102050.94;4761372;30;20044;-79
2022/01/01 01:37:44;;;;;;;63.67;26.50;;;;;;;9.53;100.00;102039.44;4767530;30;20272;-79
2022/01/01 01:40:12;;;;;;;66.00;24.95;;;;;;;9.49;100.00;102043.72;4726033;30;20085;-78
2022/01/01 01:42:43;;;;;;;63.42;26.40;;;;;;;9.44;100.00;102047.06;4727675;30;20051;-78
2022/01/01 01:45:16;;;;;;;68.10;24.92;;;;;;;9.36;100.00;102047.75;4743080;30;20054;-78
2022/01/01 01:47:46;;;;;;;74.95;27.05;;;;;;;9.34;100.00;102051.19;4715837;30;20916;-78
2022/01/01 01:50:17;;;;;;;85.80;28.90;;;;;;;9.29;100.00;102058.94;4702620;30;20037;-78
2022/01/01 01:52:49;;;;;;;60.35;25.70;;;;;;;9.27;100.00;102052.75;4751695;30;20863;-78
2022/01/01 01:55:18;;;;;;;71.45;27.20;;;;;;;9.23;100.00;102061.41;4730419;30;20526;-78
2022/01/01 01:57:48;;;;;;;66.50;27.52;;;;;;;9.18;100.00;102057.75;4705112;30;20063;-78
2022/01/01 02:02:50;;;;;;;73.75;29.25;;;;;;;9.12;100.00;102060.22;4726129;30;20070;-76
2022/01/01 02:05:18;;;;;;;70.45;27.23;;;;;;;9.08;100.00;102068.88;4732897;30;20403;-76
2022/01/01 02:07:49;;;;;;;76.13;25.52;;;;;;;9.07;100.00;102077.59;4716972;30;20056;-76
2022/01/01 02:10:17;;;;;;;67.38;25.58;;;;;;;9.05;100.00;102079.28;4737988;30;20048;-76
2022/01/01 02:12:54;;;;;;;65.25;26.45;;;;;;;9.02;100.00;102081.81;4719582;30;20295;-76
2022/01/01 02:18:07;;;;;;;66.82;24.65;;;;;;;8.97;100.00;102077.31;4738514;30;20063;-76
2022/01/01 02:20:36;;;;;;;73.82;29.33;;;;;;;8.95;100.00;102071.13;4721566;30;20048;-76
2022/01/01 02:23:05;;;;;;;79.28;30.15;;;;;;;8.92;100.00;102083.28;4735185;30;20068;-76
2022/01/01 02:25:33;;;;;;;74.70;28.33;;;;;;;8.89;100.00;102084.09;4740013;30;20056;-75
2022/01/01 02:28:02;;;;;;;72.80;25.92;;;;;;;8.87;100.00;102085.78;4717972;30;20078;-76
2022/01/01 02:30:30;;;;;;;82.60;28.77;;;;;;;8.84;100.00;102085.69;4714472;30;20214;-76
2022/01/01 02:32:59;;;;;;;70.80;27.40;;;;;;;8.82;100.00;102084.75;4728928;30;20054;-76
2022/01/01 02:35:27;;;;;;;81.30;27.65;;;;;;;8.79;100.00;102097.81;4716092;30;20056;-75
2022/01/01 02:37:55;;;;;;;72.65;26.42;;;;;;;8.77;100.00;102097.75;4732395;30;20060;-76
2022/01/01 02:40:24;;;;;;;78.15;28.73;;;;;;;8.78;100.00;102096.03;4734160;30;20051;-76
2022/01/01 02:42:53;;;;;;;85.97;30.38;;;;;;;8.80;100.00;102104.84;4721043;30;20051;-76
2022/01/01 02:45:22;;;;;;;81.05;31.02;;;;;;;8.83;100.00;102104.94;4725888;30;20052;-75
2022/01/01 02:47:50;;;;;;;90.28;32.30;;;;;;;8.87;100.00;102112.06;4722422;30;20515;-75
2022/01/01 02:50:20;;;;;;;77.22;29.33;;;;;;;8.90;100.00;102112.19;4709172;30;20035;-75
2022/01/01 02:52:49;;;;;;;78.88;30.75;;;;;;;8.93;100.00;102107.00;4746928;30;20383;-76
2022/01/01 02:55:17;;;;;;;93.90;33.20;;;;;;;8.97;100.00;102124.63;4763247;30;20067;-76
2022/01/01 02:57:46;;;;;;;87.20;33.83;;;;;;;9.03;100.00;102123.03;4733002;30;20052;-76
2022/01/01 03:00:15;;;;;;;78.53;31.48;;;;;;;9.06;100.00;102120.53;4745776;30;20522;-76
2022/01/01 03:02:45;;;;;;;86.30;33.83;;;;;;;9.12;100.00;102123.31;4737369;30;20169;-76
2022/01/01 03:05:14;;;;;;;93.72;37.58;;;;;;;9.15;100.00;102115.53;4690671;30;20052;-76
2022/01/01 03:07:42;;;;;;;90.75;37.30;;;;;;;9.19;100.00;102114.78;4727011;30;20066;-76
2022/01/01 03:10:10;;;;;;;105.88;39.63;;;;;;;9.23;100.00;102119.28;4729018;30;20410;-76
2022/01/01 03:12:39;;;;;;;102.82;40.88;;;;;;;9.27;100.00;102112.38;4745358;30;20074;-76
2022/01/01 03:15:08;;;;;;;105.00;40.15;;;;;;;9.31;100.00;102106.34;4764800;30;20059;-76
2022/01/01 03:17:36;;;;;;;100.53;41.53;;;;;;;9.33;100.00;102116.03;4722110;30;20048;-76
2022/01/01 03:20:05;;;;;;;99.70;38.38;;;;;;;9.39;100.00;102117.06;4740968;30;20066;-76
2022/01/01 03:22:34;;;;;;;110.60;41.08;;;;;;;9.43;100.00;102124.19;4734511;30;20261;-76
2022/01/01 03:25:02;;;;;;;112.40;42.25;;;;;;;9.45;100.00;102123.41;4733106;30;20496;-76
2022/01/01 03:27:31;;;;;;;93.07;39.70;;;;;;;9.46;100.00;102130.44;4729532;30;20769;-76
2022/01/01 03:29:59;;;;;;;92.18;40.33;;;;;;;9.48;100.00;102133.13;4721120;30;20056;-76
2022/01/01 03:32:28;;;;;;;108.15;40.75;;;;;;;9.50;100.00;102147.22;4721738;30;20047;-75
2022/01/01 03:34:56;;;;;;;95.15;42.30;;;;;;;9.50;100.00;102156.00;4725925;30;20047;-76
2022/01/01 03:37:25;;;;;;;92.30;41.05;;;;;;;9.53;100.00;102153.47;4710045;30;20048;-76
2022/01/01 03:39:53;;;;;;;113.05;41.95;;;;;;;9.54;100.00;102143.81;4716096;30;20048;-76
2022/01/01 03:42:22;;;;;;;96.90;37.75;;;;;;;9.57;100.00;102149.19;4736990;30;20494;-76
2022/01/01 03:44:50;;;;;;;93.70;37.35;;;;;;;9.58;100.00;102140.41;4732769;30;20052;-76
2022/01/01 03:47:19;;;;;;;94.00;35.80;;;;;;;9.59;100.00;102136.94;4741188;30;20052;-76
2022/01/01 03:49:49;;;;;;;88.65;33.13;;;;;;;9.60;100.00;102141.34;4698308;30;20079;-76
2022/01/01 03:52:18;;;;;;;87.95;31.35;;;;;;;9.61;100.00;102135.25;4731453;30;20071;-76
2022/01/01 03:54:46;;;;;;;88.18;33.03;;;;;;;9.63;100.00;102143.19;4715790;30;20048;-76
2022/01/01 03:57:14;;;;;;;83.25;29.95;;;;;;;9.63;100.00;102128.28;4730865;30;20407;-76
2022/01/01 03:59:43;;;;;;;95.28;33.33;;;;;;;9.65;100.00;102125.69;4730617;30;20052;-76
2022/01/01 04:02:11;;;;;;;90.32;30.88;;;;;;;9.63;100.00;102122.13;4739180;30;20051;-76
2022/01/01 04:04:40;;;;;;;88.30;32.05;;;;;;;9.65;100.00;102136.22;4731070;30;20352;-76
2022/01/01 04:07:10;;;;;;;82.35;32.33;;;;;;;9.65;100.00;102150.28;4743720;30;20055;-75
2022/01/01 04:09:38;;;;;;;90.55;31.98;;;;;;;9.64;100.00;102135.34;4711655;30;20259;-76
2022/01/01 04:12:06;;;;;;;93.63;31.20;;;;;;;9.66;100.00;102138.00;4743641;30;20051;-76
2022/01/01 04:14:35;;;;;;;90.97;31.60;;;;;;;9.66;100.00;102140.63;4740214;30;20266;-76
2022/01/01 04:17:03;;;;;;;89.63;30.08;;;;;;;9.64;100.00;102137.06;4759408;30;20055;-76
2022/01/01 04:19:39;;;;;;;93.05;33.63;;;;;;;9.64;100.00;102145.88;4747010;30;20296;-76
2022/01/01 04:22:13;;;;;;;104.63;32.38;;;;;;;9.64;100.00;102144.97;4729213;30;20048;-76
2022/01/01 04:24:42;;;;;;;90.25;32.95;;;;;;;9.64;100.00;102127.44;4717998;30;20059;-75
2022/01/01 04:27:10;;;;;;;95.63;33.10;;;;;;;9.64;100.00;102121.28;4763149;30;20052;-76
2022/01/01 04:29:39;;;;;;;98.07;32.90;;;;;;;9.63;100.00;102115.13;4737391;30;20184;-76
2022/01/01 04:32:09;;;;;;;89.35;33.83;;;;;;;9.63;100.00;102117.75;4747020;30;20044;-76
2022/01/01 04:34:38;;;;;;;90.07;32.75;;;;;;;9.63;100.00;102119.50;4741767;30;20044;-76
2022/01/01 04:37:12;;;;;;;87.93;32.35;;;;;;;9.62;100.00;102116.00;4715336;30;20070;-76
2022/01/01 04:39:41;;;;;;;91.10;32.03;;;;;;;9.61;100.00;102116.81;4697499;30;20071;-76
2022/01/01 04:42:10;;;;;;;92.30;33.00;;;;;;;9.61;100.00;102116.81;4760930;30;20059;-76
2022/01/01 04:44:38;;;;;;;81.55;32.88;;;;;;;9.59;100.00;102117.66;4748434;30;20561;-76
2022/01/01 04:47:07;;;;;;;82.95;31.27;;;;;;;9.59;100.00;102123.78;4749044;30;20063;-76
2022/01/01 04:49:36;;;;;;;101.53;33.90;;;;;;;9.57;100.00;102122.84;4738813;30;20509;-76
2022/01/01 04:52:04;;;;;;;89.25;31.45;;;;;;;9.55;100.00;102125.44;4729926;30;20380;-76
2022/01/01 04:54:34;;;;;;;91.85;32.15;;;;;;;9.53;100.00;102126.25;4722142;30;20060;-76
2022/01/01 04:57:02;;;;;;;92.78;33.92;;;;;;;9.52;100.00;102127.09;4744139;30;20051;-76
2022/01/01 04:59:31;;;;;;;86.05;31.35;;;;;;;9.52;100.00;102125.34;4753971;30;20185;-75
2022/01/01 05:01:59;;;;;;;99.80;32.83;;;;;;;9.51;100.00;102118.31;4734945;30;20063;-76
2022/01/01 05:04:28;;;;;;;84.22;29.38;;;;;;;9.51;100.00;102117.44;4739316;30;20048;-76
2022/01/01 05:06:57;;;;;;;77.43;31.42;;;;;;;9.50;100.00;102124.41;4758597;30;20044;-76
2022/01/01 05:09:28;;;;;;;91.05;31.10;;;;;;;9.50;100.00;102126.16;4708607;30;20058;-76
2022/01/01 05:11:56;;;;;;;100.93;33.22;;;;;;;9.50;100.00;102134.06;4735990;30;20048;-76
2022/01/01 05:14:25;;;;;;;105.85;35.97;;;;;;;9.50;100.00;102128.78;4745291;30;20123;-75
2022/01/01 05:16:55;;;;;;;83.30;34.33;;;;;;;9.48;100.00;102138.38;4720572;30;20079;-76
2022/01/01 05:19:25;;;;;;;94.57;34.50;;;;;;;9.48;100.00;102144.53;4737724;30;20489;-76
2022/01/01 05:21:56;;;;;;;91.15;33.97;;;;;;;9.47;100.00;102148.03;4734244;30;20388;-75
2022/01/01 05:24:24;;;;;;;90.85;36.28;;;;;;;9.47;100.00;102155.94;4745616;30;20503;-76
2022/01/01 05:26:58;;;;;;;85.95;34.63;;;;;;;9.47;100.00;102168.16;4699446;30;20056;-75
2022/01/01 05:29:27;;;;;;;95.30;37.03;;;;;;;9.46;100.00;102167.28;4745303;30;20375;-76
2022/01/01 05:31:55;;;;;;;86.78;37.47;;;;;;;9.45;100.00;102162.88;4724588;30;20051;-76
2022/01/01 05:34:24;;;;;;;92.97;37.65;;;;;;;9.45;100.00;102173.41;4757439;30;20040;-76
2022/01/01 05:36:53;;;;;;;91.78;37.53;;;;;;;9.46;100.00;102174.28;4741559;30;20411;-76
2022/01/01 05:39:23;;;;;;;93.55;39.05;;;;;;;9.47;100.00;102176.06;4761602;30;20518;-76
2022/01/01 05:41:54;;;;;;;93.15;38.75;;;;;;;9.45;100.00;102176.03;4703793;30;20043;-76
2022/01/01 05:44:23;;;;;;;101.45;40.92;;;;;;;9.46;100.00;102182.19;4732118;30;20035;-76
2022/01/01 05:46:53;;;;;;;102.72;41.70;;;;;;;9.46;100.00;102182.19;4733880;30;20082;-76
2022/01/01 05:49:22;;;;;;;99.55;43.72;;;;;;;9.45;100.00;102180.38;4731567;30;20407;-76
2022/01/01 05:51:50;;;;;;;104.75;44.47;;;;;;;9.47;100.00;102183.94;4717860;30;20043;-76
2022/01/01 05:54:20;;;;;;;105.60;46.92;;;;;;;9.47;100.00;102182.25;4741669;30;20059;-76
2022/01/01 05:56:49;;;;;;;113.63;47.53;;;;;;;9.48;100.00;102180.50;4711898;30;20070;-75
2022/01/01 05:59:17;;;;;;;114.57;48.45;;;;;;;9.48;100.00;102183.13;4726745;30;20433;-76
2022/01/01 06:01:46;;;;;;;111.25;52.03;;;;;;;9.49;100.00;102171.72;4723777;30;20055;-75
2022/01/01 06:04:15;;;;;;;123.90;54.65;;;;;;;9.50;100.00;102178.78;4747076;30;20052;-76
2022/01/01 06:06:46;;;;;;;104.82;53.25;;;;;;;9.52;100.00;102171.84;4726909;30;20519;-75
2022/01/01 06:09:15;;;;;;;114.60;56.58;;;;;;;9.52;100.00;102171.84;4739741;30;20059;-76
2022/01/01 06:11:43;;;;;;;122.93;55.08;;;;;;;9.53;100.00;102179.78;4692675;30;20066;-75
2022/01/01 06:14:12;;;;;;;118.10;56.15;;;;;;;9.53;100.00;102181.53;4711904;30;20052;-76
2022/01/01 06:16:40;;;;;;;114.10;56.10;;;;;;;9.54;100.00;102176.28;4737590;30;20071;-76
2022/01/01 06:19:09;;;;;;;123.50;57.28;;;;;;;9.54;100.00;102172.75;4765453;30;20059;-76
2022/01/01 06:21:37;;;;;;;117.45;60.03;;;;;;;9.56;100.00;102178.97;4735883;30;20052;-76
2022/01/01 06:24:06;;;;;;;113.93;55.55;;;;;;;9.56;100.00;102176.31;4737819;30;20054;-76
2022/01/01 06:26:39;;;;;;;122.28;57.95;;;;;;;9.57;100.00;102183.38;4760182;30;20043;-76
2022/01/01 06:29:07;;;;;;;133.55;57.78;;;;;;;9.57;100.00;102188.66;4733887;30;20063;-76
2022/01/01 06:31:35;;;;;;;116.95;55.97;;;;;;;9.57;100.00;102196.53;4701497;30;20265;-76
2022/01/01 06:34:04;;;;;;;122.22;55.08;;;;;;;9.57;100.00;102201.81;4748065;30;20059;-76
2022/01/01 06:36:34;;;;;;;114.78;52.60;;;;;;;9.57;100.00;102194.78;4744353;30;20040;-76
2022/01/01 06:39:04;;;;;;;101.82;46.45;;;;;;;9.55;100.00;102195.63;4739941;30;20402;-76
2022/01/01 06:41:33;;;;;;;119.50;50.00;;;;;;;9.56;100.00;102197.38;4720409;30;20293;-76
2022/01/01 06:44:07;;;;;;;111.70;47.22;;;;;;;9.55;100.00;102198.25;4726520;30;20040;-76
2022/01/01 06:46:35;;;;;;;110.60;46.63;;;;;;;9.53;100.00;102187.66;4723204;30;20745;-76
2022/01/01 06:49:04;;;;;;;100.07;41.50;;;;;;;9.53;100.00;102200.81;4733749;30;20056;-76
2022/01/01 06:51:32;;;;;;;100.00;41.15;;;;;;;9.53;100.00;102202.56;4721330;30;20048;-76
2022/01/01 06:54:01;;;;;;;100.10;39.83;;;;;;;9.52;100.00;102203.41;4741451;30;20052;-76
2022/01/01 06:56:29;;;;;;;106.22;41.28;;;;;;;9.52;100.00;102200.78;4735981;30;20052;-76
2022/01/01 06:58:57;;;;;;;105.65;40.47;;;;;;;9.52;100.00;102198.16;4719462;30;20507;-76
2022/01/01 07:01:26;;;;;;;102.68;39.80;;;;;;;9.50;100.00;102199.84;4706140;30;20048;-76
2022/01/01 07:03:56;;;;;;;104.38;39.60;;;;;;;9.51;100.00;102209.53;4750316;30;20507;-76
2022/01/01 07:06:24;;;;;;;107.13;39.88;;;;;;;9.51;100.00;102201.66;4744531;30;20058;-76
2022/01/01 07:08:52;;;;;;;118.32;42.00;;;;;;;9.52;100.00;102204.28;4764005;30;20067;-76
2022/01/01 07:11:21;;;;;;;121.90;43.13;;;;;;;9.53;100.00;102210.47;4718146;30;20059;-76
2022/01/01 07:13:49;;;;;;;111.18;42.40;;;;;;;9.52;100.00;102206.91;4733303;30;20059;-76
2022/01/01 07:16:20;;;;;;;104.90;38.67;;;;;;;9.52;100.00;102201.66;4697829;30;20048;-76
2022/01/01 07:18:48;;;;;;;108.65;39.10;;;;;;;9.52;100.00;102206.03;4704173;30;20064;-76
2022/01/01 07:21:17;;;;;;;118.60;40.13;;;;;;;9.53;100.00;102213.09;4743535;30;20066;-76
2022/01/01 07:23:45;;;;;;;120.15;40.65;;;;;;;9.53;100.00;102202.56;4745909;30;20056;-76
2022/01/01 07:26:14;;;;;;;119.20;40.75;;;;;;;9.54;100.00;102192.06;4725549;30;20043;-76
2022/01/01 07:28:45;;;;;;;108.22;39.13;;;;;;;9.54;100.00;102193.81;4732871;30;20371;-76
2022/01/01 07:31:14;;;;;;;118.57;38.65;;;;;;;9.54;100.00;102192.06;4713449;30;20063;-75
2022/01/01 07:33:42;;;;;;;127.80;37.15;;;;;;;9.55;100.00;102203.50;4717509;30;20284;-75
2022/01/01 07:36:11;;;;;;;106.03;35.25;;;;;;;9.55;100.00;102201.75;4715354;30;20424;-74
2022/01/01 07:38:39;;;;;;;120.03;38.60;;;;;;;9.56;100.00;102205.28;4735026;30;20691;-75
2022/01/01 07:41:08;;;;;;;103.63;35.45;;;;;;;9.55;100.00;102198.25;4726329;30;20846;-74
2022/01/01 07:43:38;;;;;;;106.35;34.83;;;;;;;9.55;100.00;102193.88;4746915;30;20519;-75
2022/01/01 07:46:07;;;;;;;95.10;34.50;;;;;;;9.57;100.00;102196.53;4708846;30;22985;-75
2022/01/01 07:48:35;;;;;;;99.38;32.50;;;;;;;9.57;100.00;102197.44;4733491;30;20056;-75
2022/01/01 07:51:04;;;;;;;93.05;31.92;;;;;;;9.59;100.00;102209.75;4738415;30;20272;-75
2022/01/01 07:53:32;;;;;;;91.88;31.85;;;;;;;9.60;100.00;102207.16;4749604;30;20048;-75
2022/01/01 07:56:00;;;;;;;97.47;31.42;;;;;;;9.61;100.00;102198.41;4753847;30;20086;-74
2022/01/01 07:58:31;;;;;;;104.60;33.50;;;;;;;9.61;100.00;102198.41;4746928;30;20063;-75
2022/01/01 08:00:59;;;;;;;97.03;32.35;;;;;;;9.62;100.00;102200.22;4720187;30;20845;-75
2022/01/01 08:03:27;;;;;;;82.07;29.08;;;;;;;9.63;100.00;102206.34;4747235;30;20056;-75
2022/01/01 08:05:56;;;;;;;89.40;29.15;;;;;;;9.64;100.00;102208.13;4743454;30;20246;-75
2022/01/01 08:08:24;;;;;;;95.75;30.00;;;;;;;9.65;100.00;102207.28;4764558;30;20511;-75
2022/01/01 08:10:53;;;;;;;82.53;29.67;;;;;;;9.65;100.00;102202.91;4721557;30;20048;-75
2022/01/01 08:13:24;;;;;;;90.60;31.05;;;;;;;9.66;100.00;102193.25;4739370;30;20054;-75
2022/01/01 08:15:53;;;;;;;;;;;;;;;9.67;100.00;102195.94;4760614;30;20056;-75
2022/01/01 08:18:21;;;;;;;91.13;31.13;;;;;;;9.68;100.00;102181.06;4709757;30;20373;-75
2022/01/01 08:20:50;;;;;;;105.43;32.00;;;;;;;9.69;100.00;102191.63;4726733;30;20052;-76
2022/01/01 08:23:18;;;;;;;102.40;34.20;;;;;;;9.71;100.00;102187.28;4733483;30;20059;-75
2022/01/01 08:25:47;;;;;;;98.45;34.70;;;;;;;9.73;100.00;102190.88;4712255;30;20063;-76
2022/01/01 08:28:15;;;;;;;115.03;36.33;;;;;;;9.76;100.00;102198.84;4740319;30;20060;-76
2022/01/01 08:30:44;;;;;;;105.63;35.00;;;;;;;9.79;100.00;102197.16;4758162;30;20056;-76
2022/01/01 08:33:12;;;;;;;102.30;34.05;;;;;;;9.80;100.00;102194.56;4719039;30;20060;-74
2022/01/01 08:35:41;;;;;;;111.70;36.13;;;;;;;9.83;100.00;102194.66;4729579;30;20060;-76
2022/01/01 08:38:09;;;;;;;104.30;33.65;;;;;;;9.84;100.00;102198.16;4731174;30;20375;-75
2022/01/01 08:40:38;;;;;;;111.38;35.75;;;;;;;9.86;100.00;102196.47;4748121;30;20399;-76
2022/01/01 08:43:08;;;;;;;110.53;34.40;;;;;;;9.88;100.00;102192.13;4726726;30;20580;-76
2022/01/01 08:45:38;;;;;;;103.22;35.53;;;;;;;9.89;100.00;102192.19;4746924;30;20055;-76
2022/01/01 08:48:07;;;;;;;101.70;35.28;;;;;;;9.90;100.00;102193.94;4732089;30;20762;-76
2022/01/01 08:50:36;;;;;;;98.82;35.15;;;;;;;9.92;100.00;102194.91;4742293;30;20052;-76
2022/01/01 08:53:05;;;;;;;103.90;33.95;;;;;;;9.94;100.00;102197.56;4720488;30;20458;-76
2022/01/01 08:55:33;;;;;;;105.38;36.53;;;;;;;9.97;100.00;102195.03;4732004;30;20046;-76
2022/01/01 08:58:02;;;;;;;99.13;31.77;;;;;;;9.98;100.00;102196.81;4736240;30;20928;-76
2022/01/01 09:00:50;;;;;;;109.35;35.92;;;;;;;10.00;100.00;102196.84;4731320;30;20051;-77
2022/01/01 09:03:19;;;;;;;102.57;36.67;;;;;;;10.03;100.00;102194.31;4725707;30;20056;-76
2022/01/01 09:05:48;;;;;;;102.93;36.13;;;;;;;10.04;100.00;102183.81;4708627;30;20242;-76
2022/01/01 09:08:35;;;;;;;100.78;36.17;;;;;;;10.06;100.00;102183.84;4755870;30;21051;-76
2022/01/01 09:11:04;;;;;;;111.78;35.28;;;;;;;10.07;100.00;102189.13;4754454;30;20051;-76
2022/01/01 09:13:33;;;;;;;111.10;37.10;;;;;;;10.09;100.00;102183.91;4718385;30;20399;-76
2022/01/01 09:16:01;;;;;;;122.07;37.47;;;;;;;10.08;100.00;102187.44;4758621;30;20503;-76
2022/01/01 09:18:30;;;;;;;109.40;36.58;;;;;;;10.09;100.00;102187.47;4747961;30;20044;-76
2022/01/01 09:20:58;;;;;;;103.30;34.78;;;;;;;10.11;100.00;102195.38;4706778;30;20423;-75
2022/01/01 09:23:27;;;;;;;114.70;36.15;;;;;;;10.12;100.00;102177.00;4726925;30;20067;-76
2022/01/01 09:25:56;;;;;;;102.07;37.63;;;;;;;10.15;100.00;102192.91;4708663;30;20169;-75
2022/01/01 09:28:25;;;;;;;105.53;36.78;;;;;;;10.19;100.00;102182.41;4733085;30;20514;-76
2022/01/01 09:30:53;;;;;;;111.03;36.38;;;;;;;10.21;100.00;102192.16;4716895;30;20621;-76
2022/01/01 09:33:23;;;;;;;93.78;35.42;;;;;;;10.25;100.00;102191.38;4729881;30;20055;-76
2022/01/01 09:35:52;;;;;;;109.32;37.45;;;;;;;10.28;100.00;102187.94;4696324;30;20035;-75
2022/01/01 09:38:20;;;;;;;99.30;38.80;;;;;;;10.32;100.00;102189.81;4767170;30;20094;-76
2022/01/01 09:40:52;;;;;;;102.20;37.17;;;;;;;10.34;100.00;102190.78;4738581;30;20435;-75
2022/01/01 09:43:22;;;;;;;93.55;39.17;;;;;;;10.37;100.00;102176.78;4763302;30;20060;-75
2022/01/01 09:45:51;;;;;;;97.38;38.53;;;;;;;10.41;100.00;102179.50;4739559;30;20059;-75
2022/01/01 09:48:22;;;;;;;96.70;39.50;;;;;;;10.45;100.00;102168.22;4733845;30;20059;-76
2022/01/01 09:50:54;;;;;;;111.80;39.90;;;;;;;10.49;100.00;102171.78;4737108;30;20192;-76
2022/01/01 09:53:24;;;;;;;94.93;39.33;;;;;;;10.52;100.00;102175.41;4720350;30;20065;-75
2022/01/01 09:55:57;;;;;;;95.90;38.47;;;;;;;10.56;100.00;102175.50;4742367;30;20040;-75
2022/01/01 09:58:30;;;;;;;87.47;37.67;;;;;;;10.58;100.00;102172.03;4743163;30;20047;-75
2022/01/01 10:01:00;;;;;;;87.38;37.22;;;;;;;10.62;100.00;102170.34;4753171;30;20289;-76
2022/01/01 10:03:33;;;;;;;81.88;38.30;;;;;;;10.65;100.00;102170.44;4733982;30;20051;-75
2022/01/01 10:06:13;;;;;;;91.20;37.95;;;;;;;10.67;100.00;102166.09;4737435;30;20426;-75
2022/01/01 10:08:46;;;;;;;82.38;37.08;;;;;;;10.70;100.00;102160.91;4763584;30;20051;-75
2022/01/01 10:11:18;;;;;;;77.95;34.50;;;;;;;10.75;100.00;102153.97;4750981;30;20249;-75
2022/01/01 10:13:47;;;;;;;80.47;38.42;;;;;;;10.77;100.00;102144.34;4729660;30;20527;-75
2022/01/01 10:16:16;;;;;;;77.35;36.95;;;;;;;10.81;100.00;102140.97;4724287;30;20044;-75
2022/01/01 10:18:48;;;;;;;71.47;36.03;;;;;;;10.84;100.00;102141.00;4759874;30;20074;-75
2022/01/01 10:21:22;;;;;;;58.88;32.53;;;;;;;10.87;100.00;102149.00;4713409;30;20048;-75
2022/01/01 10:23:52;;;;;;;66.40;33.67;;;;;;;10.90;100.00;102141.13;4735598;30;20268;-75
2022/01/01 10:29:15;;;;;;;65.10;31.88;;;;;;;10.95;100.00;102143.00;4729587;30;20068;-75
2022/01/01 10:31:54;;;;;;;63.55;31.83;;;;;;;10.97;100.00;102142.19;4717925;30;20231;-75
2022/01/01 10:34:30;;;;;;;56.75;29.80;;;;;;;11.00;100.00;102143.97;4726287;30;20545;-75
2022/01/01 10:37:00;;;;;;;59.05;29.38;;;;;;;11.02;100.00;102140.53;4722085;30;20059;-75
2022/01/01 10:39:28;;;;;;;57.28;30.02;;;;;;;11.05;100.00;102145.88;4744610;30;20055;-75
2022/01/01 10:42:03;;;;;;;64.70;29.77;;;;;;;11.10;100.00;102146.88;4720632;30;20594;-75
2022/01/01 10:44:36;;;;;;;55.90;30.15;;;;;;;11.13;100.00;102148.66;4707536;30;20055;-75
2022/01/01 10:47:19;;;;;;;59.03;30.33;;;;;;;11.16;100.00;102151.38;4739948;30;20058;-76
2022/01/01 10:52:27;;;;;;;65.75;36.53;;;;;;;11.20;100.00;102136.50;4704269;30;20419;-75
2022/01/01 10:55:03;;;;;;;54.05;31.35;;;;;;;11.21;100.00;102127.72;4755391;30;20043;-75
2022/01/01 10:57:33;;;;;;;52.95;28.98;;;;;;;11.23;100.00;102126.91;4752966;30;20055;-76
2022/01/01 11:00:11;;;;;;;52.10;29.70;;;;;;;11.25;100.00;102132.22;4763851;30;20047;-75
2022/01/01 11:02:47;;;;;;;50.28;27.83;;;;;;;11.26;100.00;102128.72;4729637;30;20333;-76
2022/01/01 11:05:24;;;;;;;57.78;28.48;;;;;;;11.26;100.00;102142.78;4732049;30;20071;-76
2022/01/01 11:07:53;;;;;;;52.78;26.70;;;;;;;11.28;100.00;102137.56;4719985;30;20044;-76
2022/01/01 11:10:23;;;;;;;55.45;27.58;;;;;;;11.27;100.00;102138.44;4743784;30;20751;-74
2022/01/01 11:12:53;;;;;;;49.70;26.35;;;;;;;11.28;100.00;102140.19;4741606;30;20059;-74
2022/01/01 11:15:22;;;;;;;44.45;26.10;;;;;;;11.28;100.00;102151.63;4738318;30;20054;-74
2022/01/01 11:17:51;;;;;;;51.70;26.50;;;;;;;11.30;100.00;102146.38;4740271;30;20294;-74
2022/01/01 11:20:20;;;;;;;42.08;25.80;;;;;;;11.29;100.00;102140.22;4744129;30;20056;-77
2022/01/01 11:22:49;;;;;;;51.85;26.70;;;;;;;11.30;100.00;102138.47;4735709;30;20665;-74
2022/01/01 11:25:19;;;;;;;53.58;25.23;;;;;;;11.29;100.00;102134.94;4739835;30;20060;-74